createdAt,value
2022-10-18T00:00:45.945Z,83.60
2022-10-18T00:03:12.582Z,83.56
2022-10-18T00:05:39.272Z,83.72
2022-10-18T00:08:06.045Z,83.66
2022-10-18T00:10:32.753Z,83.86
2022-10-18T00:12:59.561Z,82.86
2022-10-18T00:15:26.184Z,83.19
2022-10-18T00:17:52.880Z,83.59
2022-10-18T00:20:19.724Z,83.02
2022-10-18T00:22:46.680Z,83.40
2022-10-18T00:25:13.976Z,83.54
2022-10-18T00:27:40.681Z,83.23
2022-10-18T00:30:21.804Z,83.91
2022-10-18T00:32:48.529Z,83.14
2022-10-18T00:35:15.435Z,82.49
2022-10-18T00:37:42.182Z,83.04
2022-10-18T00:40:10.141Z,82.62
2022-10-18T00:42:37.899Z,82.64
2022-10-18T00:45:16.953Z,82.76
2022-10-18T00:47:48.220Z,83.19
2022-10-18T00:50:15.067Z,82.41
2022-10-18T00:52:45.754Z,83.00
2022-10-18T00:55:13.345Z,82.40
2022-10-18T00:57:43.271Z,83.28
2022-10-18T01:00:12.445Z,83.11
2022-10-18T01:02:41.666Z,82.75
2022-10-18T01:05:10.414Z,82.85
2022-10-18T01:08:00.044Z,83.08
2022-10-18T01:10:44.788Z,82.03
2022-10-18T01:13:33.645Z,82.16
2022-10-18T01:16:24.785Z,82.37
2022-10-18T01:18:57.620Z,82.37
2022-10-18T01:21:45.821Z,82.33
2022-10-18T01:24:33.685Z,82.56
2022-10-18T01:27:29.080Z,83.47
2022-10-18T01:30:34.882Z,82.76
2022-10-18T01:33:33.069Z,82.21
2022-10-18T01:36:07.854Z,82.23
2022-10-18T01:38:37.041Z,83.71
2022-10-18T01:41:08.029Z,83.09
2022-10-18T01:43:39.907Z,83.01
2022-10-18T01:46:08.994Z,83.50
2022-10-18T01:48:38.096Z,83.75
2022-10-18T01:51:05.848Z,83.59
2022-10-18T01:53:34.781Z,82.71
2022-10-18T01:56:16.720Z,82.06
2022-10-18T01:58:52.336Z,83.57
2022-10-18T02:01:39.909Z,83.09
2022-10-18T02:04:32.570Z,82.74
2022-10-18T02:07:09.785Z,82.25
2022-10-18T02:09:50.613Z,82.78
2022-10-18T02:12:19.387Z,83.06
2022-10-18T02:14:50.821Z,82.11
2022-10-18T02:17:20.045Z,83.18
2022-10-18T02:19:53.761Z,82.75
2022-10-18T02:22:23.082Z,83.31
2022-10-18T02:24:55.188Z,82.77
2022-10-18T02:27:22.665Z,82.55
2022-10-18T02:29:49.850Z,82.44
2022-10-18T02:32:22.526Z,82.67
2022-10-18T02:35:05.492Z,81.64
2022-10-18T02:37:38.763Z,82.21
2022-10-18T02:40:08.018Z,82.37
2022-10-18T02:42:46.272Z,81.40
2022-10-18T02:45:13.890Z,81.07
2022-10-18T02:47:40.799Z,81.70
2022-10-18T02:50:07.890Z,81.40
2022-10-18T02:52:34.557Z,81.56
2022-10-18T02:55:01.905Z,81.30
2022-10-18T02:57:28.749Z,81.80
2022-10-18T02:59:55.739Z,82.33
2022-10-18T03:02:22.478Z,81.84
2022-10-18T03:04:49.262Z,82.07
2022-10-18T03:07:16.297Z,81.83
2022-10-18T03:09:43.094Z,81.57
2022-10-18T03:12:09.795Z,81.59
2022-10-18T03:14:36.530Z,81.67
2022-10-18T03:17:03.300Z,81.96
2022-10-18T03:19:30.046Z,82.37
2022-10-18T03:21:56.733Z,82.84
2022-10-18T03:24:23.466Z,83.64
2022-10-18T03:26:50.106Z,83.19
2022-10-18T03:29:17.938Z,83.25
2022-10-18T03:31:44.601Z,84.44
2022-10-18T03:34:11.298Z,84.17
2022-10-18T03:36:38.885Z,85.14
2022-10-18T03:39:05.610Z,85.07
2022-10-18T03:41:32.294Z,85.61
2022-10-18T03:43:58.919Z,85.39
2022-10-18T03:46:25.661Z,87.49
2022-10-18T03:48:52.362Z,87.78
2022-10-18T03:51:19.058Z,88.08
2022-10-18T03:53:45.775Z,88.54
2022-10-18T03:56:12.497Z,87.91
2022-10-18T03:58:39.186Z,88.86
2022-10-18T04:01:05.985Z,88.35
2022-10-18T04:03:32.608Z,89.59
2022-10-18T04:06:00.796Z,90.22
2022-10-18T04:08:27.517Z,89.60
2022-10-18T04:10:54.244Z,89.74
2022-10-18T04:13:20.919Z,90.35
2022-10-18T04:15:47.669Z,90.30
2022-10-18T04:18:14.343Z,89.91
2022-10-18T04:20:41.023Z,90.62
2022-10-18T04:23:07.656Z,90.51
2022-10-18T04:25:34.409Z,91.08
2022-10-18T04:28:01.040Z,91.45
2022-10-18T04:30:27.837Z,91.31
2022-10-18T04:32:56.444Z,91.59
2022-10-18T04:35:25.939Z,91.96
2022-10-18T04:37:52.550Z,92.12
2022-10-18T04:40:20.064Z,91.21
2022-10-18T04:42:47.480Z,91.21
2022-10-18T04:45:14.231Z,90.77
2022-10-18T04:47:40.946Z,90.83
2022-10-18T04:50:08.003Z,90.72
2022-10-18T04:52:34.786Z,89.97
2022-10-18T04:55:01.423Z,90.81
2022-10-18T04:57:28.177Z,91.06
2022-10-18T04:59:54.822Z,90.27
2022-10-18T05:02:21.551Z,90.54
2022-10-18T05:04:48.156Z,90.94
2022-10-18T05:07:14.916Z,91.17
2022-10-18T05:09:41.556Z,90.46
2022-10-18T05:12:08.480Z,90.75
2022-10-18T05:14:35.180Z,90.58
2022-10-18T05:17:01.941Z,91.27
2022-10-18T05:19:28.645Z,91.32
2022-10-18T05:21:55.396Z,91.45
2022-10-18T05:24:24.211Z,91.82
2022-10-18T05:26:54.334Z,91.46
2022-10-18T05:29:21.154Z,91.20
2022-10-18T05:31:49.176Z,91.47
2022-10-18T05:34:16.606Z,90.84
2022-10-18T05:36:44.046Z,91.36
2022-10-18T05:39:10.726Z,91.71
2022-10-18T05:41:37.375Z,91.10
2022-10-18T05:44:05.902Z,91.72
2022-10-18T05:46:33.395Z,90.97
2022-10-18T05:49:00.103Z,91.14
2022-10-18T05:51:26.777Z,91.73
2022-10-18T05:53:54.824Z,91.87
2022-10-18T05:56:21.536Z,92.97
2022-10-18T05:58:51.701Z,93.06
2022-10-18T06:01:18.799Z,93.27
2022-10-18T06:03:45.475Z,93.23
2022-10-18T06:06:13.533Z,93.30
2022-10-18T06:08:41.939Z,93.79
2022-10-18T06:11:11.080Z,93.82
2022-10-18T06:13:45.994Z,93.63
2022-10-18T06:16:15.384Z,93.72
2022-10-18T06:18:42.609Z,93.55
2022-10-18T06:21:09.911Z,93.72
2022-10-18T06:23:36.946Z,93.45
2022-10-18T06:26:06.491Z,93.76
2022-10-18T06:28:35.864Z,93.61
2022-10-18T06:31:03.718Z,92.96
2022-10-18T06:33:35.322Z,93.97
2022-10-18T06:36:07.357Z,93.26
2022-10-18T06:38:35.658Z,93.44
2022-10-18T06:41:03.657Z,93.79
2022-10-18T06:43:30.447Z,93.34
2022-10-18T06:45:57.616Z,93.51
2022-10-18T06:48:24.434Z,93.52
2022-10-18T06:50:57.008Z,94.03
2022-10-18T06:53:26.131Z,93.83
2022-10-18T06:55:53.362Z,93.43
2022-10-18T06:58:20.107Z,93.21
2022-10-18T07:00:47.621Z,93.63
2022-10-18T07:03:14.393Z,93.17
2022-10-18T07:05:41.118Z,93.01
2022-10-18T07:08:07.858Z,93.24
2022-10-18T07:10:34.585Z,93.05
2022-10-18T07:13:20.025Z,92.82
2022-10-18T07:15:47.952Z,93.43
2022-10-18T07:18:14.638Z,93.40
2022-10-18T07:20:41.358Z,93.61
2022-10-18T07:23:09.514Z,93.22
2022-10-18T07:25:36.226Z,92.03
2022-10-18T07:28:02.902Z,90.81
2022-10-18T07:30:29.603Z,89.58
2022-10-18T07:32:56.290Z,89.28
2022-10-18T07:35:22.976Z,88.92
2022-10-18T07:37:49.672Z,88.99
2022-10-18T07:40:16.582Z,89.79
2022-10-18T07:42:43.233Z,89.71
2022-10-18T07:45:12.507Z,90.11
2022-10-18T07:47:39.780Z,90.68
2022-10-18T07:50:07.374Z,90.76
2022-10-18T07:52:34.184Z,90.77
2022-10-18T07:55:00.906Z,91.33
2022-10-18T07:57:27.634Z,90.42
2022-10-18T07:59:56.991Z,90.37
2022-10-18T08:02:24.478Z,90.40
2022-10-18T08:04:51.256Z,90.69
2022-10-18T08:07:18.055Z,86.66
2022-10-18T08:09:44.735Z,83.08
2022-10-18T08:12:11.490Z,81.45
2022-10-18T08:14:38.152Z,78.61
2022-10-18T08:17:04.845Z,79.51
2022-10-18T08:19:31.531Z,77.99
2022-10-18T08:21:58.414Z,77.15
2022-10-18T08:24:25.347Z,79.10
2022-10-18T08:26:51.989Z,77.66
2022-10-18T08:29:23.892Z,75.97
2022-10-18T08:31:52.594Z,74.51
2022-10-18T08:34:19.948Z,73.44
2022-10-18T08:36:47.085Z,72.84
2022-10-18T08:39:13.855Z,72.94
2022-10-18T08:41:43.420Z,74.19
2022-10-18T08:44:27.586Z,74.40
2022-10-18T08:47:07.344Z,72.29
2022-10-18T08:50:02.583Z,72.39
2022-10-18T08:52:53.526Z,73.60
2022-10-18T08:55:29.214Z,72.20
2022-10-18T08:57:58.292Z,69.85
2022-10-18T09:00:30.630Z,71.04
2022-10-18T09:03:34.126Z,70.06
2022-10-18T09:06:03.906Z,67.31
2022-10-18T09:08:52.359Z,71.30
2022-10-18T09:11:21.814Z,71.62
2022-10-18T09:14:16.498Z,71.67
2022-10-18T09:16:59.061Z,70.57
2022-10-18T09:19:38.087Z,69.02
2022-10-18T09:22:17.588Z,69.60
2022-10-18T09:24:56.259Z,69.60
2022-10-18T09:27:35.851Z,69.73
2022-10-18T09:30:20.000Z,66.89
2022-10-18T09:33:18.718Z,68.22
2022-10-18T09:36:22.044Z,67.69
2022-10-18T09:38:55.139Z,68.36
2022-10-18T09:41:27.923Z,67.21
2022-10-18T09:44:03.461Z,67.71
2022-10-18T09:46:39.189Z,67.54
2022-10-18T09:49:19.499Z,68.97
2022-10-18T09:51:49.340Z,68.73
2022-10-18T09:54:34.064Z,70.07
2022-10-18T09:57:06.240Z,69.87
2022-10-18T09:59:49.408Z,69.10
2022-10-18T10:02:19.389Z,69.79
2022-10-18T10:04:46.171Z,69.02
2022-10-18T10:07:18.286Z,69.85
2022-10-18T10:09:55.876Z,68.02
2022-10-18T10:12:32.347Z,70.21
2022-10-18T10:15:29.535Z,70.73
2022-10-18T10:18:06.887Z,68.76
2022-10-18T10:20:48.610Z,68.44
2022-10-18T10:23:39.618Z,68.57
2022-10-18T10:26:27.590Z,68.25
2022-10-18T10:28:54.713Z,68.89
2022-10-18T10:31:24.624Z,69.05
2022-10-18T10:34:05.160Z,70.32
2022-10-18T10:36:33.632Z,68.87
2022-10-18T10:39:05.981Z,71.07
2022-10-18T10:41:33.563Z,71.21
2022-10-18T10:44:03.974Z,71.92
2022-10-18T10:46:36.571Z,71.87
2022-10-18T10:49:35.071Z,70.08
2022-10-18T10:52:15.453Z,70.71
2022-10-18T10:54:52.511Z,69.35
2022-10-18T10:57:26.080Z,69.63
2022-10-18T10:59:55.560Z,69.24
2022-10-18T11:02:29.780Z,71.13
2022-10-18T11:05:15.195Z,70.96
2022-10-18T11:07:46.492Z,71.35
2022-10-18T11:10:18.400Z,71.78
2022-10-18T11:12:54.310Z,70.18
2022-10-18T11:15:43.035Z,72.55
2022-10-18T11:18:25.755Z,72.55
2022-10-18T11:21:19.115Z,73.04
2022-10-18T11:23:46.065Z,74.72
2022-10-18T11:26:12.744Z,72.47
2022-10-18T11:28:58.363Z,73.26
2022-10-18T11:31:35.826Z,72.42
2022-10-18T11:34:17.792Z,71.97
2022-10-18T11:36:56.291Z,71.54
2022-10-18T11:40:06.186Z,71.00
2022-10-18T11:42:49.935Z,69.70
2022-10-18T11:45:42.995Z,70.67
2022-10-18T11:48:19.519Z,70.09
2022-10-18T11:51:11.178Z,69.42
2022-10-18T11:53:52.053Z,70.41
2022-10-18T11:56:32.707Z,70.12
2022-10-18T11:59:08.248Z,71.80
2022-10-18T12:01:38.202Z,70.07
2022-10-18T12:04:09.268Z,70.30
2022-10-18T12:06:41.901Z,70.41
2022-10-18T12:09:25.379Z,69.53
2022-10-18T12:12:02.931Z,71.58
2022-10-18T12:14:35.183Z,70.24
2022-10-18T12:17:40.791Z,71.20
2022-10-18T12:20:02.782Z,71.29
2022-10-18T12:22:39.759Z,71.25
2022-10-18T12:25:19.298Z,71.68
2022-10-18T12:28:02.750Z,71.55
2022-10-18T12:31:06.949Z,71.50
2022-10-18T12:33:41.997Z,71.08
2022-10-18T12:36:39.060Z,70.02
2022-10-18T12:39:12.630Z,69.34
2022-10-18T12:41:39.441Z,65.72
2022-10-18T12:44:33.565Z,66.27
2022-10-18T12:47:03.408Z,66.80
2022-10-18T12:49:31.660Z,68.76
2022-10-18T12:52:01.708Z,68.21
2022-10-18T12:54:39.730Z,67.70
2022-10-18T12:57:22.560Z,67.26
2022-10-18T12:59:49.781Z,66.24
2022-10-18T13:02:22.285Z,67.50
2022-10-18T13:04:49.223Z,67.63
2022-10-18T13:07:32.489Z,68.91
2022-10-18T13:10:12.414Z,68.14
2022-10-18T13:12:47.807Z,68.99
2022-10-18T13:15:53.894Z,66.97
2022-10-18T13:18:36.386Z,67.36
2022-10-18T13:21:14.287Z,66.29
2022-10-18T13:24:07.142Z,64.45
2022-10-18T13:27:18.140Z,62.21
2022-10-18T13:30:27.714Z,63.47
2022-10-18T13:33:31.487Z,63.27
2022-10-18T13:35:59.855Z,65.16
2022-10-18T13:38:48.666Z,65.98
2022-10-18T13:41:21.020Z,66.58
2022-10-18T13:43:56.918Z,67.24
2022-10-18T13:46:32.715Z,68.29
2022-10-18T13:49:17.842Z,67.27
2022-10-18T13:51:49.957Z,68.54
2022-10-18T13:54:38.629Z,66.53
2022-10-18T13:57:14.415Z,65.60
2022-10-18T14:00:02.924Z,65.26
2022-10-18T14:03:00.024Z,64.86
2022-10-18T14:05:42.057Z,65.70
2022-10-18T14:08:16.556Z,66.37
2022-10-18T14:11:01.252Z,66.07
2022-10-18T14:13:39.040Z,68.52
2022-10-18T14:16:37.087Z,69.28
2022-10-18T14:19:25.471Z,69.18
2022-10-18T14:22:21.227Z,68.87
2022-10-18T14:24:52.834Z,66.70
2022-10-18T14:27:22.452Z,69.28
2022-10-18T14:29:51.018Z,68.41
2022-10-18T14:32:28.349Z,67.82
2022-10-18T14:35:27.304Z,66.63
2022-10-18T14:37:43.387Z,67.37
2022-10-18T14:40:28.827Z,67.08
2022-10-18T14:42:55.565Z,68.44
2022-10-18T14:45:23.856Z,68.53
2022-10-18T14:47:50.515Z,69.28
2022-10-18T14:50:30.701Z,70.93
2022-10-18T14:52:57.775Z,70.28
2022-10-18T14:55:28.690Z,70.68
2022-10-18T14:57:55.494Z,70.06
2022-10-18T15:00:33.935Z,68.58
2022-10-18T15:03:03.646Z,67.91
2022-10-18T15:05:30.795Z,68.96
2022-10-18T15:08:00.118Z,68.74
2022-10-18T15:10:33.095Z,71.10
2022-10-18T15:13:11.214Z,70.87
2022-10-18T15:15:39.387Z,72.53
2022-10-18T15:18:08.176Z,72.18
2022-10-18T15:20:42.392Z,73.28
2022-10-18T15:23:26.047Z,73.00
2022-10-18T15:26:00.708Z,73.94
2022-10-18T15:28:36.067Z,74.59
2022-10-18T15:31:03.327Z,75.07
2022-10-18T15:33:34.573Z,75.28
2022-10-18T15:36:11.224Z,74.62
2022-10-18T15:38:38.704Z,76.15
2022-10-18T15:41:38.518Z,76.04
2022-10-18T15:44:38.681Z,74.75
2022-10-18T15:47:20.270Z,74.25
2022-10-18T15:49:47.109Z,74.47
2022-10-18T15:52:36.665Z,74.44
2022-10-18T15:55:29.592Z,74.55
2022-10-18T15:58:06.524Z,74.08
2022-10-18T16:00:33.273Z,75.13
2022-10-18T16:03:00.031Z,74.36
2022-10-18T16:05:27.254Z,75.33
2022-10-18T16:07:54.061Z,75.93
2022-10-18T16:10:20.951Z,75.94
2022-10-18T16:12:48.814Z,77.11
2022-10-18T16:15:15.589Z,76.27
2022-10-18T16:17:42.434Z,76.85
2022-10-18T16:20:21.216Z,76.76
2022-10-18T16:22:48.138Z,77.99
2022-10-18T16:25:14.902Z,76.63
2022-10-18T16:27:41.677Z,77.11
2022-10-18T16:30:15.997Z,76.80
2022-10-18T16:32:42.763Z,77.79
2022-10-18T16:35:10.254Z,76.41
2022-10-18T16:37:38.297Z,76.57
2022-10-18T16:40:31.616Z,75.97
2022-10-18T16:42:58.356Z,76.65
2022-10-18T16:45:24.996Z,76.58
2022-10-18T16:47:51.705Z,77.57
2022-10-18T16:50:20.424Z,77.81
2022-10-18T16:52:47.184Z,77.25
2022-10-18T16:55:16.465Z,76.97
2022-10-18T16:57:43.708Z,77.06
2022-10-18T17:00:20.695Z,76.88
2022-10-18T17:02:48.496Z,77.78
2022-10-18T17:05:19.066Z,78.14
2022-10-18T17:07:47.299Z,77.23
2022-10-18T17:10:18.302Z,77.78
2022-10-18T17:12:45.392Z,76.51
2022-10-18T17:15:12.930Z,76.94
2022-10-18T17:17:39.857Z,76.57
2022-10-18T17:20:08.353Z,76.63
2022-10-18T17:22:35.126Z,76.31
2022-10-18T17:25:01.817Z,76.87
2022-10-18T17:27:28.504Z,77.17
2022-10-18T17:29:55.196Z,77.23
2022-10-18T17:32:21.989Z,77.56
2022-10-18T17:34:48.683Z,77.69
2022-10-18T17:37:15.456Z,78.11
2022-10-18T17:39:42.168Z,79.02
2022-10-18T17:42:08.962Z,78.78
2022-10-18T17:44:36.825Z,78.86
2022-10-18T17:47:03.795Z,79.73
2022-10-18T17:49:30.563Z,80.64
2022-10-18T17:51:57.284Z,79.98
2022-10-18T17:54:23.921Z,80.00
2022-10-18T17:56:53.829Z,79.93
2022-10-18T17:59:21.471Z,79.71
2022-10-18T18:01:48.236Z,80.17
2022-10-18T18:04:17.061Z,80.26
2022-10-18T18:06:45.422Z,80.24
2022-10-18T18:09:16.685Z,81.34
2022-10-18T18:11:44.857Z,81.60
2022-10-18T18:14:12.035Z,81.10
2022-10-18T18:16:42.222Z,81.18
2022-10-18T18:19:10.021Z,81.63
2022-10-18T18:21:37.263Z,80.68
2022-10-18T18:24:04.621Z,81.36
2022-10-18T18:26:33.361Z,82.52
2022-10-18T18:31:30.780Z,81.67
2022-10-18T18:34:01.105Z,82.21
2022-10-18T18:36:32.571Z,83.14
2022-10-18T18:38:59.927Z,82.07
2022-10-18T18:41:28.172Z,82.52
2022-10-18T18:44:04.205Z,82.51
2022-10-18T18:46:36.636Z,82.78
2022-10-18T18:49:03.454Z,82.93
2022-10-18T18:51:30.259Z,82.88
2022-10-18T18:53:56.895Z,83.42
2022-10-18T18:56:25.802Z,84.31
2022-10-18T18:58:53.480Z,83.23
2022-10-18T19:01:25.733Z,83.76
2022-10-18T19:03:55.539Z,84.59
2022-10-18T19:06:28.454Z,83.45
2022-10-18T19:09:01.477Z,84.71
2022-10-18T19:11:32.521Z,83.59
2022-10-18T19:14:00.050Z,84.36
2022-10-18T19:16:29.018Z,84.24
2022-10-18T19:18:55.705Z,84.90
2022-10-18T19:21:30.949Z,85.13
2022-10-18T19:24:00.889Z,85.27
2022-10-18T19:26:50.176Z,85.60
2022-10-18T19:29:27.083Z,85.62
2022-10-18T19:31:56.225Z,86.24
2022-10-18T19:34:24.524Z,86.66
2022-10-18T19:36:52.216Z,86.29
2022-10-18T19:39:42.169Z,86.05
2022-10-18T19:42:16.076Z,86.70
2022-10-18T19:44:45.907Z,86.67
2022-10-18T19:47:14.355Z,86.62
2022-10-18T19:49:42.916Z,86.42
2022-10-18T19:52:12.132Z,86.85
2022-10-18T19:54:39.156Z,86.30
2022-10-18T19:57:05.834Z,86.75
2022-10-18T19:59:32.610Z,87.33
2022-10-18T20:02:04.498Z,87.22
2022-10-18T20:04:34.551Z,87.93
2022-10-18T20:07:02.834Z,88.73
2022-10-18T20:09:29.795Z,88.67
2022-10-18T20:11:56.648Z,87.94
2022-10-18T20:14:23.448Z,87.47
2022-10-18T20:16:50.171Z,88.33
2022-10-18T20:19:16.879Z,88.36
2022-10-18T20:21:43.668Z,88.57
2022-10-18T20:24:11.401Z,88.17
2022-10-18T20:26:39.539Z,88.15
2022-10-18T20:29:07.671Z,89.47
2022-10-18T20:31:38.579Z,89.71
2022-10-18T20:34:08.234Z,88.96
2022-10-18T20:36:35.309Z,89.19
2022-10-18T20:39:02.533Z,87.75
2022-10-18T20:41:34.782Z,87.97
2022-10-18T20:44:05.071Z,87.86
2022-10-18T20:49:17.822Z,88.31
2022-10-18T20:51:44.880Z,88.97
2022-10-18T20:54:12.256Z,89.11
2022-10-18T20:56:39.469Z,89.15
2022-10-18T20:59:09.842Z,88.85
2022-10-18T21:01:38.709Z,88.91
2022-10-18T21:04:07.820Z,89.16
2022-10-18T21:06:37.209Z,89.33
2022-10-18T21:09:14.882Z,89.93
2022-10-18T21:11:44.959Z,89.47
2022-10-18T21:14:14.007Z,89.58
2022-10-18T21:16:41.177Z,90.05
2022-10-18T21:19:13.433Z,89.43
2022-10-18T21:21:45.929Z,89.27
2022-10-18T21:24:15.160Z,90.02
2022-10-18T21:26:42.017Z,89.70
2022-10-18T21:29:09.908Z,89.41
2022-10-18T21:31:39.907Z,89.75
2022-10-18T21:34:15.316Z,89.25
2022-10-18T21:36:44.243Z,89.55
2022-10-18T21:39:15.300Z,89.05
2022-10-18T21:41:42.793Z,88.83
2022-10-18T21:44:11.334Z,89.79
2022-10-18T21:46:43.185Z,88.69
2022-10-18T21:49:10.396Z,88.96
2022-10-18T21:51:37.688Z,89.63
2022-10-18T21:54:04.515Z,88.69
2022-10-18T21:56:33.836Z,89.51
2022-10-18T21:59:01.381Z,88.75
2022-10-18T22:01:34.196Z,88.18
2022-10-18T22:04:06.222Z,89.03
2022-10-18T22:09:09.999Z,88.81
2022-10-18T22:11:41.075Z,89.41
2022-10-18T22:14:08.381Z,89.24
2022-10-18T22:16:35.113Z,88.46
2022-10-18T22:19:04.537Z,89.09
2022-10-18T22:21:31.324Z,89.29
2022-10-18T22:23:59.121Z,90.62
2022-10-18T22:26:30.849Z,90.09
2022-10-18T22:29:04.412Z,90.24
2022-10-18T22:31:34.701Z,90.55
2022-10-18T22:34:06.658Z,90.92
2022-10-18T22:36:34.517Z,90.82
2022-10-18T22:39:01.769Z,90.78
2022-10-18T22:41:28.624Z,91.63
2022-10-18T22:43:57.403Z,91.39
2022-10-18T22:46:26.822Z,91.49
2022-10-18T22:48:53.684Z,90.67
2022-10-18T22:51:20.397Z,91.44
2022-10-18T22:53:47.188Z,91.42
2022-10-18T22:56:17.518Z,91.65
2022-10-18T22:58:44.282Z,91.61
2022-10-18T23:01:13.571Z,91.04
2022-10-18T23:03:40.763Z,92.28
2022-10-18T23:06:25.535Z,91.29
2022-10-18T23:08:53.997Z,91.40
2022-10-18T23:11:21.578Z,91.38
2022-10-18T23:13:48.753Z,91.70
2022-10-18T23:16:16.338Z,90.81
2022-10-18T23:18:43.115Z,91.44
2022-10-18T23:21:12.160Z,91.25
2022-10-18T23:23:41.243Z,90.69
2022-10-18T23:26:10.716Z,91.36
2022-10-18T23:28:39.724Z,90.74
2022-10-18T23:31:19.020Z,92.04
2022-10-18T23:33:47.922Z,91.37
2022-10-18T23:36:15.361Z,91.22
2022-10-18T23:38:42.566Z,91.21
2022-10-18T23:41:11.082Z,92.00
2022-10-18T23:43:38.404Z,92.64
2022-10-18T23:46:05.935Z,92.68
2022-10-18T23:48:34.234Z,92.51
2022-10-18T23:51:01.681Z,92.25
2022-10-18T23:53:28.431Z,92.10
2022-10-18T23:55:59.387Z,92.41
2022-10-18T23:58:27.669Z,92.73
